IAH weather

George Bush Intercontinental Houston Airport
Houston, Texas, United States

Public forecast

Using degrees Fahrenheit for public forecast. Weather courtesy of forecast.io.

METAR (pilot weather report)

Retrieved 2017/03/29 07:53 UTC (1 hour ago):

KIAH 290753Z 16016G25KT 10SM BKN025 24/19 A2972

TAF (pilot weather forecast)

Retrieved 2017/03/29 06:27 UTC (3 hours ago):

TAF KIAH 290522Z 2906/3012 16017G26KT P6SM SCT020 BKN028 BKN040 FM291000 16015KT P6SM VCSH SCT007 BKN012 FM291500 15013G22KT P6SM VCTS BKN020CB BKN030 OVC250 TEMPO 2917/2920 VRB10G25KT 3SM TSRA BKN025CB OVC060 FM292200 18011G18KT P6SM OVC050 FM300600 20006KT P6SM VCSH BKN025 FM300900 29008KT P6SM BKN015